createdAt,value
2022-12-01T00:00:55.195Z,60.24
2022-12-01T00:03:57.768Z,60.20
2022-12-01T00:06:59.983Z,60.29
2022-12-01T00:10:21.477Z,60.68
2022-12-01T00:13:23.713Z,60.64
2022-12-01T00:16:26.326Z,60.80
2022-12-01T00:19:28.635Z,60.87
2022-12-01T00:22:31.939Z,61.22
2022-12-01T00:25:34.190Z,61.37
2022-12-01T00:28:36.673Z,61.48
2022-12-01T00:31:40.205Z,61.54
2022-12-01T00:34:42.768Z,61.76
2022-12-01T00:37:45.105Z,62.05
2022-12-01T00:40:47.635Z,62.32
2022-12-01T00:43:50.383Z,62.46
2022-12-01T00:46:53.104Z,62.70
2022-12-01T00:49:55.599Z,62.58
2022-12-01T00:52:58.068Z,62.64
2022-12-01T00:56:00.502Z,62.75
2022-12-01T00:59:03.089Z,62.81
2022-12-01T01:02:07.824Z,62.85
2022-12-01T01:05:10.519Z,62.91
2022-12-01T01:08:15.025Z,62.93
2022-12-01T01:11:17.900Z,62.92
2022-12-01T01:14:21.740Z,63.03
2022-12-01T01:17:24.255Z,63.04
2022-12-01T01:20:26.497Z,63.05
2022-12-01T01:23:29.448Z,63.03
2022-12-01T01:26:32.535Z,63.25
2022-12-01T01:29:36.047Z,63.35
2022-12-01T01:32:38.320Z,63.58
2022-12-01T01:35:41.332Z,63.65
2022-12-01T01:38:44.079Z,63.69
2022-12-01T01:41:46.640Z,63.82
2022-12-01T01:44:53.443Z,64.13
2022-12-01T01:47:59.482Z,64.20
2022-12-01T01:51:02.486Z,64.29
2022-12-01T01:54:17.072Z,64.55
2022-12-01T01:57:28.902Z,64.70
2022-12-01T02:00:31.544Z,64.60
2022-12-01T02:03:35.942Z,64.61
2022-12-01T02:06:38.350Z,64.85
2022-12-01T02:09:41.132Z,64.83
2022-12-01T02:12:58.323Z,64.78
2022-12-01T02:16:14.429Z,65.01
2022-12-01T02:19:31.708Z,65.25
2022-12-01T02:22:53.999Z,65.39
2022-12-01T02:26:27.466Z,65.15
2022-12-01T02:29:51.794Z,64.96
2022-12-01T02:33:11.854Z,64.98
2022-12-01T02:36:32.590Z,65.25
2022-12-01T02:39:48.709Z,65.34
2022-12-01T02:43:14.294Z,65.56
2022-12-01T02:46:26.280Z,65.65
2022-12-01T02:49:43.843Z,65.67
2022-12-01T02:52:46.342Z,65.73
2022-12-01T02:55:54.799Z,65.83
2022-12-01T02:58:57.567Z,65.96
2022-12-01T03:02:09.450Z,66.05
2022-12-01T03:05:37.671Z,66.13
2022-12-01T03:08:59.139Z,66.35
2022-12-01T03:12:04.234Z,66.61
2022-12-01T03:15:12.494Z,66.78
2022-12-01T03:18:35.990Z,66.92
2022-12-01T03:21:41.480Z,67.02
2022-12-01T03:24:48.399Z,67.15
2022-12-01T03:28:20.327Z,67.11
2022-12-01T03:31:24.896Z,66.79
2022-12-01T03:34:36.372Z,67.08
2022-12-01T03:38:14.667Z,67.13
2022-12-01T03:41:24.549Z,67.00
2022-12-01T03:44:32.166Z,66.88
2022-12-01T03:47:37.544Z,66.90
2022-12-01T03:50:55.790Z,66.78
2022-12-01T03:54:06.534Z,66.50
2022-12-01T03:57:13.412Z,66.29
2022-12-01T04:00:17.156Z,66.12
2022-12-01T04:03:23.074Z,66.15
2022-12-01T04:06:25.382Z,66.07
2022-12-01T04:09:30.228Z,66.05
2022-12-01T04:12:33.202Z,65.91
2022-12-01T04:15:35.736Z,65.90
2022-12-01T04:18:38.021Z,65.73
2022-12-01T04:21:40.684Z,65.63
2022-12-01T04:24:42.929Z,65.69
2022-12-01T04:27:45.643Z,65.78
2022-12-01T04:30:47.855Z,65.65
2022-12-01T04:33:50.433Z,65.73
2022-12-01T04:36:52.856Z,65.74
2022-12-01T04:39:55.446Z,65.70
2022-12-01T04:42:57.667Z,65.71
2022-12-01T04:46:00.245Z,65.58
2022-12-01T04:49:02.630Z,65.48
2022-12-01T04:52:05.409Z,65.38
2022-12-01T04:55:08.515Z,65.24
2022-12-01T04:58:11.131Z,65.51
2022-12-01T05:01:15.773Z,65.81
2022-12-01T05:04:18.344Z,65.93
2022-12-01T05:07:20.682Z,66.05
2022-12-01T05:10:23.229Z,66.07
2022-12-01T05:13:25.798Z,66.26
2022-12-01T05:16:32.312Z,66.20
2022-12-01T05:19:53.196Z,66.22
2022-12-01T05:23:07.110Z,66.18
2022-12-01T05:26:10.401Z,66.17
2022-12-01T05:29:13.582Z,66.24
2022-12-01T05:32:15.859Z,66.36
2022-12-01T05:35:18.441Z,66.56
2022-12-01T05:38:21.060Z,66.75
2022-12-01T05:41:23.660Z,67.00
2022-12-01T05:44:25.905Z,67.19
2022-12-01T05:47:28.566Z,67.40
2022-12-01T05:50:31.634Z,67.61
2022-12-01T05:53:34.486Z,67.74
2022-12-01T05:56:36.714Z,67.75
2022-12-01T05:59:39.282Z,67.82
2022-12-01T06:02:42.211Z,67.93
2022-12-01T06:05:44.890Z,67.96
2022-12-01T06:08:47.184Z,67.96
2022-12-01T06:11:52.553Z,67.92
2022-12-01T06:14:55.155Z,67.96
2022-12-01T06:18:00.737Z,68.05
2022-12-01T06:21:03.595Z,68.20
2022-12-01T06:24:06.517Z,68.36
2022-12-01T06:27:08.827Z,68.52
2022-12-01T06:30:11.637Z,68.68
2022-12-01T06:33:13.965Z,68.96
2022-12-01T06:36:16.570Z,69.22
2022-12-01T06:39:19.054Z,69.63
2022-12-01T06:42:21.587Z,70.00
2022-12-01T06:45:23.862Z,70.19
2022-12-01T06:48:26.488Z,70.51
2022-12-01T06:51:30.493Z,70.46
2022-12-01T06:54:33.592Z,70.51
2022-12-01T06:57:36.015Z,70.64
2022-12-01T07:00:38.874Z,70.75
2022-12-01T07:03:41.157Z,71.00
2022-12-01T07:06:46.535Z,71.32
2022-12-01T07:09:48.947Z,71.59
2022-12-01T07:12:51.674Z,71.70
2022-12-01T07:15:53.995Z,71.84
2022-12-01T07:18:56.554Z,72.11
2022-12-01T07:21:58.823Z,72.05
2022-12-01T07:25:01.373Z,71.78
2022-12-01T07:28:03.669Z,71.58
2022-12-01T07:31:08.864Z,71.37
2022-12-01T07:34:13.060Z,71.22
2022-12-01T07:37:15.608Z,70.74
2022-12-01T07:40:18.082Z,70.32
2022-12-01T07:43:20.697Z,69.93
2022-12-01T07:46:26.251Z,69.87
2022-12-01T07:49:28.919Z,69.60
2022-12-01T07:52:31.159Z,69.28
2022-12-01T07:55:36.290Z,68.81
2022-12-01T07:58:38.651Z,68.30
2022-12-01T08:01:44.523Z,67.49
2022-12-01T08:04:47.426Z,66.97
2022-12-01T08:07:49.800Z,66.17
2022-12-01T08:10:53.205Z,65.58
2022-12-01T08:13:55.890Z,64.48
2022-12-01T08:16:58.947Z,63.48
2022-12-01T08:20:01.558Z,62.83
2022-12-01T08:23:04.318Z,61.84
2022-12-01T08:26:12.508Z,60.92
2022-12-01T08:29:19.901Z,60.13
2022-12-01T08:32:22.842Z,58.96
2022-12-01T08:35:25.858Z,58.33
2022-12-01T08:38:28.128Z,56.72
2022-12-01T08:41:31.820Z,55.36
2022-12-01T08:44:34.125Z,54.69
2022-12-01T08:47:36.882Z,52.42
2022-12-01T08:50:39.489Z,51.15
2022-12-01T08:53:45.761Z,49.51
2022-12-01T08:56:49.550Z,47.97
2022-12-01T08:59:52.219Z,46.49
2022-12-01T09:02:57.341Z,45.33
2022-12-01T09:06:06.743Z,45.66
2022-12-01T09:09:10.861Z,45.91
2022-12-01T09:12:13.688Z,44.42
2022-12-01T09:15:16.168Z,43.74
2022-12-01T09:18:18.791Z,45.09
2022-12-01T09:21:24.718Z,45.18
2022-12-01T09:24:27.721Z,44.55
2022-12-01T09:27:29.999Z,43.69
2022-12-01T09:30:35.125Z,42.22
2022-12-01T09:33:38.470Z,41.02
2022-12-01T09:36:41.537Z,39.31
2022-12-01T09:39:43.840Z,38.67
2022-12-01T09:42:47.739Z,39.12
2022-12-01T09:46:07.654Z,38.74
2022-12-01T09:49:19.300Z,38.20
2022-12-01T09:52:24.330Z,37.33
2022-12-01T09:55:30.329Z,36.84
2022-12-01T09:58:33.377Z,37.00
2022-12-01T10:01:38.645Z,36.73
2022-12-01T10:04:46.799Z,37.21
2022-12-01T10:07:56.430Z,36.46
2022-12-01T10:11:08.408Z,35.38
2022-12-01T10:14:20.447Z,36.04
2022-12-01T10:18:04.913Z,36.33
2022-12-01T10:21:10.119Z,36.71
2022-12-01T10:24:31.116Z,37.62
2022-12-01T10:27:52.492Z,38.26
2022-12-01T10:31:04.566Z,37.83
2022-12-01T10:34:23.123Z,36.86
2022-12-01T10:37:28.824Z,36.12
2022-12-01T10:40:35.246Z,34.89
2022-12-01T10:43:40.466Z,33.71
2022-12-01T10:46:52.517Z,30.51
2022-12-01T10:49:56.324Z,28.96
2022-12-01T10:52:58.757Z,28.01
2022-12-01T10:56:04.266Z,26.10
2022-12-01T10:59:44.248Z,25.71
2022-12-01T11:02:47.925Z,25.09
2022-12-01T11:05:54.506Z,25.64
2022-12-01T11:09:05.435Z,24.42
2022-12-01T11:12:16.637Z,24.63
2022-12-01T11:15:22.726Z,24.12
2022-12-01T11:18:27.906Z,24.76
2022-12-01T11:21:31.928Z,25.06
2022-12-01T11:25:00.652Z,24.46
2022-12-01T11:28:04.672Z,25.69
2022-12-01T11:31:11.076Z,27.24
2022-12-01T11:34:24.676Z,29.33
2022-12-01T11:37:50.493Z,30.98
2022-12-01T11:41:03.163Z,32.54
2022-12-01T11:44:43.063Z,34.11
2022-12-01T11:48:06.247Z,34.31
2022-12-01T11:51:24.362Z,33.62
2022-12-01T11:54:27.262Z,32.48
2022-12-01T11:57:34.885Z,32.00
2022-12-01T12:00:51.120Z,31.90
2022-12-01T12:04:25.304Z,31.80
2022-12-01T12:07:55.506Z,32.79
2022-12-01T12:11:26.427Z,33.37
2022-12-01T12:14:50.835Z,33.84
2022-12-01T12:17:59.814Z,34.13
2022-12-01T12:21:38.930Z,34.79
2022-12-01T12:25:24.220Z,35.12
2022-12-01T12:29:07.155Z,35.23
2022-12-01T12:32:34.972Z,35.51
2022-12-01T12:36:05.372Z,35.30
2022-12-01T12:39:27.401Z,34.68
2022-12-01T12:42:59.741Z,34.31
2022-12-01T12:46:08.273Z,33.87
2022-12-01T12:49:27.049Z,33.84
2022-12-01T12:52:42.620Z,34.10
2022-12-01T12:55:54.958Z,34.77
2022-12-01T12:59:01.914Z,35.64
2022-12-01T13:02:14.976Z,36.27
2022-12-01T13:05:43.776Z,36.73
2022-12-01T13:08:53.432Z,37.25
2022-12-01T13:12:15.892Z,38.28
2022-12-01T13:15:21.516Z,39.17
2022-12-01T13:18:46.946Z,40.09
2022-12-01T13:21:52.223Z,40.64
2022-12-01T13:24:55.154Z,41.11
2022-12-01T13:28:10.277Z,41.71
2022-12-01T13:31:15.993Z,42.26
2022-12-01T13:34:29.215Z,43.07
2022-12-01T13:37:35.678Z,43.68
2022-12-01T13:40:39.235Z,43.88
2022-12-01T13:44:03.883Z,44.18
2022-12-01T13:47:33.077Z,44.67
2022-12-01T13:50:46.044Z,45.41
2022-12-01T13:54:05.629Z,45.71
2022-12-01T13:57:14.003Z,45.81
2022-12-01T14:00:41.460Z,46.16
2022-12-01T14:04:26.330Z,46.52
2022-12-01T14:07:39.652Z,47.27
2022-12-01T14:10:57.281Z,47.36
2022-12-01T14:14:12.258Z,47.48
2022-12-01T14:17:41.804Z,47.87
2022-12-01T14:20:48.485Z,47.96
2022-12-01T14:24:06.269Z,48.18
2022-12-01T14:27:12.170Z,48.47
2022-12-01T14:30:37.586Z,48.81
2022-12-01T14:33:40.188Z,49.18
2022-12-01T14:37:11.661Z,49.27
2022-12-01T14:40:19.495Z,49.54
2022-12-01T14:43:40.594Z,49.72
2022-12-01T14:46:58.014Z,50.30
2022-12-01T14:50:15.337Z,50.45
2022-12-01T14:53:25.897Z,50.88
2022-12-01T14:56:30.003Z,51.81
2022-12-01T14:59:32.843Z,51.57
2022-12-01T15:02:43.554Z,51.62
2022-12-01T15:05:46.253Z,51.84
2022-12-01T15:09:34.598Z,52.15
2022-12-01T15:12:37.861Z,52.47
2022-12-01T15:15:53.565Z,52.61
2022-12-01T15:18:58.405Z,52.92
2022-12-01T15:22:06.042Z,52.94
2022-12-01T15:25:14.900Z,53.15
2022-12-01T15:28:18.597Z,53.46
2022-12-01T15:31:21.319Z,53.49
2022-12-01T15:34:48.659Z,53.75
2022-12-01T15:37:52.583Z,54.00
2022-12-01T15:41:28.057Z,54.19
2022-12-01T15:44:42.393Z,54.48
2022-12-01T15:47:47.252Z,54.67
2022-12-01T15:51:01.973Z,54.71
2022-12-01T15:54:04.657Z,54.79
2022-12-01T15:57:09.079Z,54.95
2022-12-01T16:00:20.726Z,55.08
2022-12-01T16:03:23.579Z,55.58
2022-12-01T16:06:30.126Z,55.79
2022-12-01T16:09:41.126Z,56.03
2022-12-01T16:12:43.464Z,55.84
2022-12-01T16:15:45.980Z,56.07
2022-12-01T16:18:57.887Z,56.43
2022-12-01T16:22:13.595Z,56.74
2022-12-01T16:25:28.013Z,56.95
2022-12-01T16:28:36.338Z,57.14
2022-12-01T16:31:58.572Z,57.13
2022-12-01T16:35:04.232Z,57.12
2022-12-01T16:38:20.602Z,57.23
2022-12-01T16:41:38.361Z,57.44
2022-12-01T16:44:42.071Z,57.68
2022-12-01T16:47:46.896Z,57.59
2022-12-01T16:50:50.228Z,57.74
2022-12-01T16:53:52.883Z,57.88
2022-12-01T16:56:55.136Z,57.94
2022-12-01T16:59:57.832Z,58.08
2022-12-01T17:03:00.823Z,58.25
2022-12-01T17:06:04.701Z,58.46
2022-12-01T17:09:07.100Z,58.43
2022-12-01T17:12:09.875Z,58.57
2022-12-01T17:15:12.304Z,58.56
2022-12-01T17:18:16.422Z,58.65
2022-12-01T17:21:19.115Z,58.76
2022-12-01T17:24:21.801Z,58.99
2022-12-01T17:27:25.245Z,59.30
2022-12-01T17:30:27.921Z,59.40
2022-12-01T17:33:30.391Z,59.47
2022-12-01T17:36:32.951Z,59.83
2022-12-01T17:39:35.318Z,59.79
2022-12-01T17:42:37.946Z,59.98
2022-12-01T17:45:42.085Z,60.01
2022-12-01T17:48:46.402Z,60.19
2022-12-01T17:51:48.738Z,60.36
2022-12-01T17:54:51.710Z,60.68
2022-12-01T17:57:54.182Z,60.76
2022-12-01T18:00:56.719Z,60.78
2022-12-01T18:03:59.331Z,60.90
2022-12-01T18:07:01.666Z,61.02
2022-12-01T18:10:04.617Z,61.23
2022-12-01T18:13:07.208Z,61.47
2022-12-01T18:16:20.962Z,61.61
2022-12-01T18:19:23.388Z,62.03
2022-12-01T18:22:25.958Z,62.00
2022-12-01T18:25:28.233Z,62.04
2022-12-01T18:28:31.091Z,62.29
2022-12-01T18:31:34.603Z,62.27
2022-12-01T18:34:37.228Z,62.56
2022-12-01T18:37:40.398Z,62.64
2022-12-01T18:40:42.976Z,62.75
2022-12-01T18:43:45.740Z,62.97
2022-12-01T18:46:48.349Z,63.16
2022-12-01T18:49:50.631Z,63.15
2022-12-01T18:52:53.195Z,63.28
2022-12-01T18:55:55.453Z,63.20
2022-12-01T18:59:01.553Z,63.43
2022-12-01T19:02:04.382Z,63.44
2022-12-01T19:05:07.297Z,63.51
2022-12-01T19:08:09.755Z,63.38
2022-12-01T19:11:12.686Z,63.48
2022-12-01T19:14:18.490Z,63.48
2022-12-01T19:17:21.567Z,63.71
2022-12-01T19:20:24.056Z,63.83
2022-12-01T19:23:26.785Z,63.90
2022-12-01T19:26:29.174Z,63.98
2022-12-01T19:29:31.731Z,64.13
2022-12-01T19:32:34.452Z,64.43
2022-12-01T19:35:37.040Z,64.52
2022-12-01T19:38:39.976Z,64.61
2022-12-01T19:41:42.645Z,64.61
2022-12-01T19:44:45.252Z,64.72
2022-12-01T19:47:48.934Z,64.92
2022-12-01T19:50:51.109Z,65.24
2022-12-01T19:53:54.566Z,65.22
2022-12-01T19:56:57.007Z,65.29
2022-12-01T20:00:00.004Z,65.47
2022-12-01T20:03:02.386Z,65.66
2022-12-01T20:06:08.350Z,65.70
2022-12-01T20:09:10.939Z,65.93
2022-12-01T20:12:14.625Z,65.97
2022-12-01T20:15:17.227Z,66.17
2022-12-01T20:18:19.941Z,66.12
2022-12-01T20:21:25.565Z,66.21
2022-12-01T20:24:28.130Z,66.37
2022-12-01T20:27:30.543Z,66.65
2022-12-01T20:30:33.085Z,66.69
2022-12-01T20:33:35.458Z,66.75
2022-12-01T20:36:39.137Z,66.91
2022-12-01T20:39:42.870Z,67.02
2022-12-01T20:42:45.412Z,67.19
2022-12-01T20:45:47.772Z,67.29
2022-12-01T20:48:50.443Z,67.40
2022-12-01T20:51:52.693Z,67.48
2022-12-01T20:54:55.448Z,67.63
2022-12-01T20:57:57.665Z,67.76
2022-12-01T21:01:01.182Z,67.99
2022-12-01T21:04:03.679Z,68.15
2022-12-01T21:07:06.263Z,68.15
2022-12-01T21:10:08.807Z,68.34
2022-12-01T21:13:44.646Z,68.38
2022-12-01T21:16:49.122Z,68.72
2022-12-01T21:20:18.074Z,68.74
2022-12-01T21:23:21.327Z,68.85
2022-12-01T21:26:23.871Z,69.13
2022-12-01T21:29:40.179Z,68.88
2022-12-01T21:32:44.499Z,68.73
2022-12-01T21:35:50.073Z,68.76
2022-12-01T21:38:57.384Z,68.88
2022-12-01T21:42:06.995Z,69.13
2022-12-01T21:45:31.155Z,69.16
2022-12-01T21:48:36.369Z,69.37
2022-12-01T21:51:38.927Z,69.36
2022-12-01T21:54:41.180Z,69.27
2022-12-01T21:57:48.667Z,69.07
2022-12-01T22:00:53.808Z,69.07
2022-12-01T22:04:02.026Z,69.15
2022-12-01T22:07:05.317Z,69.33
2022-12-01T22:10:46.824Z,69.51
2022-12-01T22:13:49.076Z,69.58
2022-12-01T22:16:58.175Z,69.56
2022-12-01T22:20:02.411Z,69.52
2022-12-01T22:23:13.031Z,69.61
2022-12-01T22:26:20.552Z,69.74
2022-12-01T22:29:31.670Z,69.72
2022-12-01T22:32:38.710Z,69.82
2022-12-01T22:35:46.306Z,69.78
2022-12-01T22:38:49.880Z,69.92
2022-12-01T22:41:58.438Z,69.98
2022-12-01T22:45:26.378Z,70.03
2022-12-01T22:48:40.492Z,70.07
2022-12-01T22:51:49.638Z,70.13
2022-12-01T22:54:52.578Z,70.00
2022-12-01T22:57:55.256Z,70.15
2022-12-01T23:01:03.842Z,70.04
2022-12-01T23:04:20.520Z,69.75
2022-12-01T23:07:32.016Z,69.54
2022-12-01T23:10:35.245Z,69.62
2022-12-01T23:13:37.838Z,69.39
2022-12-01T23:16:40.563Z,69.19
2022-12-01T23:19:43.289Z,69.05
2022-12-01T23:22:46.365Z,69.21
2022-12-01T23:25:50.527Z,69.23
2022-12-01T23:28:52.810Z,68.93
2022-12-01T23:31:55.408Z,69.05
2022-12-01T23:35:00.364Z,69.19
2022-12-01T23:38:03.240Z,69.19
2022-12-01T23:41:10.554Z,68.83
2022-12-01T23:44:21.310Z,68.78
2022-12-01T23:47:26.775Z,68.68
2022-12-01T23:50:30.439Z,68.71
2022-12-01T23:53:33.602Z,68.64
2022-12-01T23:56:39.272Z,68.80
2022-12-01T23:59:42.183Z,68.73
